Time;durP1;ratioP1;P1;durP2;ratioP2;P2;SDS_P1;SDS_P2;PMS_P1;PMS_P2;Temp;Humidity;BMP_temperature;BMP_pressure;BME280_temperature;BME280_humidity;BME280_pressure;Samples;Min_cycle;Max_cycle;Signal;HPM_P1;HPM_P2
2022/11/29 00:01:05;;;;;;;63.10;15.55;;;8.70;99.90;;;;;;5035622;28;20037;-71
2022/11/29 00:03:31;;;;;;;93.68;15.57;;;8.70;99.90;;;;;;5051607;28;20060;-71
2022/11/29 00:06:04;;;;;;;96.30;16.33;;;8.60;99.90;;;;;;5034111;28;20053;-71
2022/11/29 00:08:30;;;;;;;109.47;18.15;;;8.60;99.90;;;;;;5062664;28;20033;-70
2022/11/29 00:10:55;;;;;;;102.65;16.20;;;8.60;99.90;;;;;;5054032;28;20060;-71
2022/11/29 00:13:21;;;;;;;63.95;14.82;;;8.50;99.90;;;;;;5052620;28;20041;-71
2022/11/29 00:15:46;;;;;;;51.55;15.15;;;8.60;99.90;;;;;;5063802;28;20033;-71
2022/11/29 00:18:12;;;;;;;41.55;14.43;;;8.60;99.90;;;;;;5051694;28;20412;-71
2022/11/29 00:20:38;;;;;;;42.58;15.13;;;8.70;99.90;;;;;;5050612;28;20041;-71
2022/11/29 00:23:04;;;;;;;102.20;15.93;;;8.70;99.90;;;;;;5047624;28;20033;-71
2022/11/29 00:25:30;;;;;;;89.80;15.50;;;8.60;99.90;;;;;;5055474;28;20513;-70
2022/11/29 00:27:55;;;;;;;55.85;14.98;;;8.60;99.90;;;;;;5049326;28;20033;-70
2022/11/29 00:30:21;;;;;;;69.15;15.25;;;8.60;99.90;;;;;;5071747;28;20040;-70
2022/11/29 00:32:47;;;;;;;50.70;16.10;;;8.50;99.90;;;;;;5055488;28;20150;-71
2022/11/29 00:35:13;;;;;;;73.07;15.88;;;8.50;99.90;;;;;;5056065;28;20117;-70
2022/11/29 00:37:38;;;;;;;48.03;14.73;;;8.60;99.90;;;;;;5059713;28;20082;-70
2022/11/29 00:40:05;;;;;;;47.20;15.23;;;8.60;99.90;;;;;;5064071;28;20037;-70
2022/11/29 00:42:30;;;;;;;59.80;15.80;;;8.70;99.90;;;;;;5059232;28;20032;-71
2022/11/29 00:44:56;;;;;;;46.28;14.88;;;8.60;99.90;;;;;;5055531;28;20044;-71
2022/11/29 00:47:22;;;;;;;96.97;17.27;;;8.60;99.90;;;;;;5070375;28;20036;-71
2022/11/29 00:49:47;;;;;;;67.32;16.58;;;8.60;99.90;;;;;;5071911;28;20501;-71
2022/11/29 00:52:13;;;;;;;43.55;15.25;;;8.50;99.90;;;;;;5070726;28;20051;-71
2022/11/29 00:54:38;;;;;;;47.13;14.48;;;8.50;99.90;;;;;;5072062;28;20079;-70
2022/11/29 00:57:04;;;;;;;78.47;16.08;;;8.50;99.90;;;;;;5055107;28;20511;-71
2022/11/29 00:59:29;;;;;;;79.85;16.60;;;8.50;99.90;;;;;;5055130;28;20463;-71
2022/11/29 01:01:55;;;;;;;70.32;16.35;;;8.50;99.90;;;;;;5070641;28;20040;-71
2022/11/29 01:04:21;;;;;;;96.32;17.58;;;8.50;99.90;;;;;;5071749;28;20543;-71
2022/11/29 01:06:51;;;;;;;84.22;17.80;;;8.50;99.90;;;;;;5053721;28;20048;-71
2022/11/29 01:09:16;;;;;;;44.67;15.73;;;8.50;99.90;;;;;;5068752;28;20515;-71
2022/11/29 01:11:42;;;;;;;46.33;15.90;;;8.50;99.90;;;;;;5051234;28;20037;-71
2022/11/29 01:14:10;;;;;;;92.32;17.00;;;8.50;99.90;;;;;;5054314;28;20042;-71
2022/11/29 01:16:36;;;;;;;50.10;16.20;;;8.40;99.90;;;;;;5051697;28;20040;-71
2022/11/29 01:19:02;;;;;;;45.83;16.27;;;8.50;99.90;;;;;;5052740;28;20041;-71
2022/11/29 01:21:28;;;;;;;71.20;16.02;;;8.50;99.90;;;;;;5068687;28;20071;-71
2022/11/29 01:23:54;;;;;;;48.90;15.15;;;8.40;99.90;;;;;;5073521;28;20079;-71
2022/11/29 01:26:22;;;;;;;89.13;17.33;;;8.50;99.90;;;;;;5058921;28;20043;-71
2022/11/29 01:28:50;;;;;;;90.78;17.17;;;8.50;99.90;;;;;;5073454;28;20040;-71
2022/11/29 01:31:19;;;;;;;48.67;15.95;;;8.50;99.90;;;;;;5058982;28;20045;-71
2022/11/29 01:33:45;;;;;;;48.72;16.98;;;8.50;99.90;;;;;;5075545;28;20040;-71
2022/11/29 01:36:12;;;;;;;51.33;16.17;;;8.50;99.90;;;;;;5075393;28;20036;-71
2022/11/29 01:38:38;;;;;;;50.33;16.42;;;8.50;99.90;;;;;;5074229;28;20044;-71
2022/11/29 01:41:09;;;;;;;51.08;16.83;;;8.50;99.90;;;;;;5042128;28;20451;-71
2022/11/29 01:43:54;;;;;;;46.80;15.50;;;8.60;99.90;;;;;;5038077;28;20091;-71
2022/11/29 01:46:19;;;;;;;44.25;15.55;;;8.50;99.90;;;;;;5055268;28;20076;-71
2022/11/29 01:48:45;;;;;;;60.17;15.65;;;8.50;99.90;;;;;;5038385;28;20460;-71
2022/11/29 01:51:11;;;;;;;49.75;16.88;;;8.50;99.90;;;;;;5057181;28;20063;-71
2022/11/29 01:53:37;;;;;;;69.38;16.88;;;8.50;99.90;;;;;;5073519;28;20041;-71
2022/11/29 01:56:04;;;;;;;44.70;14.55;;;8.50;99.90;;;;;;5075024;28;20036;-71
2022/11/29 01:58:31;;;;;;;42.55;15.68;;;8.50;99.90;;;;;;5074936;28;20048;-71
2022/11/29 02:00:57;;;;;;;67.85;16.55;;;8.50;99.90;;;;;;5066599;28;20124;-71
2022/11/29 02:03:23;;;;;;;42.38;15.23;;;8.50;99.90;;;;;;5065037;28;20370;-71
2022/11/29 02:05:51;;;;;;;51.85;15.32;;;8.50;99.90;;;;;;5038170;28;20496;-71
2022/11/29 02:08:23;;;;;;;45.40;14.73;;;8.50;99.90;;;;;;5054739;28;20041;-71
2022/11/29 02:11:10;;;;;;;62.45;15.52;;;8.50;99.90;;;;;;5038108;28;20079;-71
2022/11/29 02:14:02;;;;;;;41.90;14.70;;;8.50;99.90;;;;;;5070879;28;20100;-71
2022/11/29 02:16:51;;;;;;;40.63;14.35;;;8.50;99.90;;;;;;5056840;28;20037;-71
2022/11/29 02:19:48;;;;;;;41.35;15.57;;;8.40;99.90;;;;;;5074583;28;20047;-71
2022/11/29 02:22:23;;;;;;;44.05;14.82;;;8.40;99.90;;;;;;5056602;28;20087;-71
2022/11/29 02:25:23;;;;;;;35.03;13.65;;;8.50;99.90;;;;;;5057836;28;20039;-71
2022/11/29 02:28:26;;;;;;;39.92;14.65;;;8.50;99.90;;;;;;5072507;28;20043;-71
2022/11/29 02:31:26;;;;;;;39.33;14.90;;;8.50;99.90;;;;;;5031600;28;20386;-71
2022/11/29 02:34:23;;;;;;;35.33;13.57;;;8.50;99.90;;;;;;5054546;28;20037;-71
2022/11/29 02:37:07;;;;;;;35.22;14.60;;;8.50;99.90;;;;;;5052071;28;20505;-71
2022/11/29 02:39:47;;;;;;;36.38;13.80;;;8.40;99.90;;;;;;5057754;28;20052;-71
2022/11/29 02:42:47;;;;;;;31.33;13.38;;;8.40;99.90;;;;;;5071607;28;20567;-71
2022/11/29 02:45:50;;;;;;;44.63;14.45;;;8.40;99.90;;;;;;5049281;28;20041;-71
2022/11/29 02:48:46;;;;;;;33.00;14.30;;;8.40;99.90;;;;;;5061993;28;20493;-71
2022/11/29 02:51:26;;;;;;;30.42;13.45;;;8.40;99.90;;;;;;5056379;28;20044;-71
2022/11/29 02:54:13;;;;;;;32.35;13.80;;;8.40;99.90;;;;;;5057088;28;20063;-71
2022/11/29 02:57:01;;;;;;;31.33;13.77;;;8.40;99.90;;;;;;5056220;28;20040;-71
2022/11/29 02:59:54;;;;;;;32.13;14.48;;;8.40;99.90;;;;;;5074109;28;20075;-71
2022/11/29 03:02:41;;;;;;;34.42;13.60;;;8.40;99.90;;;;;;5029178;28;20032;-71
2022/11/29 03:05:35;;;;;;;30.05;13.38;;;8.40;99.90;;;;;;5073635;28;20101;-71
2022/11/29 03:08:15;;;;;;;31.45;13.25;;;8.40;99.90;;;;;;5071216;28;20389;-71
2022/11/29 03:10:58;;;;;;;34.45;12.82;;;8.40;99.90;;;;;;5068830;28;20550;-71
2022/11/29 03:13:55;;;;;;;26.10;12.50;;;8.40;99.90;;;;;;5073445;28;20094;-71
2022/11/29 03:16:37;;;;;;;32.05;12.82;;;8.30;99.90;;;;;;5056818;28;20032;-70
2022/11/29 03:19:33;;;;;;;33.53;12.98;;;8.40;99.90;;;;;;5072517;28;20498;-71
2022/11/29 03:22:28;;;;;;;33.53;14.15;;;8.40;99.90;;;;;;5073817;28;20067;-71
2022/11/29 03:25:05;;;;;;;33.17;12.93;;;8.30;99.90;;;;;;5073529;28;20052;-71
2022/11/29 03:27:38;;;;;;;28.10;13.40;;;8.30;99.90;;;;;;5054490;28;20488;-71
2022/11/29 03:30:09;;;;;;;39.95;14.13;;;8.30;99.90;;;;;;5068871;28;20052;-71
2022/11/29 03:32:49;;;;;;;31.63;13.52;;;8.40;99.90;;;;;;5023477;28;20037;-71
2022/11/29 03:35:36;;;;;;;28.95;13.70;;;8.30;99.90;;;;;;5071680;28;20496;-71
2022/11/29 03:38:24;;;;;;;25.92;12.80;;;8.30;99.90;;;;;;5073065;28;20037;-71
2022/11/29 03:41:19;;;;;;;32.10;13.07;;;8.40;99.90;;;;;;5056455;28;20132;-71
2022/11/29 03:44:10;;;;;;;27.55;11.65;;;8.30;99.90;;;;;;5071420;28;20044;-71
2022/11/29 03:46:49;;;;;;;23.15;12.15;;;8.20;99.90;;;;;;5026649;28;20055;-71
2022/11/29 03:49:31;;;;;;;30.90;11.98;;;8.20;99.90;;;;;;5056483;28;20037;-71
2022/11/29 03:52:15;;;;;;;31.20;12.90;;;8.20;99.90;;;;;;5052964;28;20037;-71
2022/11/29 03:55:02;;;;;;;25.60;12.80;;;8.20;99.90;;;;;;5054938;28;20166;-71
2022/11/29 03:57:48;;;;;;;26.13;12.60;;;8.10;99.90;;;;;;5051026;28;20124;-71
2022/11/29 04:00:14;;;;;;;30.25;12.82;;;8.10;99.90;;;;;;5049086;28;20081;-71
2022/11/29 04:03:12;;;;;;;32.80;13.48;;;8.20;99.90;;;;;;5048673;28;20122;-71
2022/11/29 04:06:01;;;;;;;25.23;12.07;;;8.20;99.90;;;;;;5061384;28;20048;-71
2022/11/29 04:09:04;;;;;;;27.48;12.40;;;8.20;99.90;;;;;;5050045;28;20405;-71
2022/11/29 04:11:53;;;;;;;30.98;12.40;;;8.20;99.90;;;;;;5046121;28;20037;-71
2022/11/29 04:14:53;;;;;;;26.80;12.57;;;8.10;99.90;;;;;;5051503;28;20107;-70
2022/11/29 04:17:37;;;;;;;29.23;12.52;;;8.20;99.90;;;;;;5048308;28;20719;-70
2022/11/29 04:20:26;;;;;;;27.80;13.07;;;8.20;99.90;;;;;;5064904;28;20090;-71
2022/11/29 04:23:20;;;;;;;30.17;13.60;;;8.20;99.90;;;;;;5039873;28;20041;-71
2022/11/29 04:26:06;;;;;;;26.90;12.77;;;8.20;99.90;;;;;;5032539;28;20051;-71
2022/11/29 04:28:56;;;;;;;27.42;12.90;;;8.20;99.90;;;;;;5049299;28;20044;-70
2022/11/29 04:31:31;;;;;;;27.88;11.45;;;8.10;99.90;;;;;;5034420;28;20044;-71
2022/11/29 04:34:13;;;;;;;26.45;12.57;;;8.20;99.90;;;;;;5035622;28;20033;-70
2022/11/29 04:37:02;;;;;;;24.75;11.52;;;8.20;99.90;;;;;;5051273;28;20056;-71
2022/11/29 04:39:45;;;;;;;31.70;12.88;;;8.10;99.90;;;;;;5051961;28;20041;-71
2022/11/29 04:42:29;;;;;;;27.08;11.55;;;8.10;99.90;;;;;;5059706;28;20040;-71
2022/11/29 04:45:15;;;;;;;27.50;12.68;;;8.10;99.90;;;;;;5054204;28;20116;-71
2022/11/29 04:47:59;;;;;;;24.65;11.85;;;8.10;99.90;;;;;;5034810;28;20048;-71
2022/11/29 04:50:43;;;;;;;24.50;11.93;;;8.00;99.90;;;;;;5069508;28;20031;-71
2022/11/29 04:53:47;;;;;;;28.75;12.05;;;8.00;99.90;;;;;;5059028;28;20037;-71
2022/11/29 04:56:27;;;;;;;23.98;11.57;;;8.00;99.90;;;;;;5035032;28;20049;-71
2022/11/29 04:59:17;;;;;;;23.80;11.93;;;7.90;99.90;;;;;;5041163;28;20043;-71
2022/11/29 05:02:09;;;;;;;37.70;12.35;;;7.90;99.90;;;;;;5015679;28;20100;-70
2022/11/29 05:05:09;;;;;;;24.55;11.95;;;7.90;99.90;;;;;;5039472;28;20049;-71
2022/11/29 05:07:45;;;;;;;27.60;12.77;;;7.90;99.90;;;;;;5065808;28;20048;-71
2022/11/29 05:10:37;;;;;;;24.35;11.65;;;7.90;99.90;;;;;;5060836;28;20244;-71
2022/11/29 05:13:17;;;;;;;26.67;12.60;;;8.00;99.90;;;;;;5046842;28;20493;-71
2022/11/29 05:16:14;;;;;;;23.58;12.38;;;8.00;99.90;;;;;;5063306;28;20047;-71
2022/11/29 05:19:14;;;;;;;25.85;12.27;;;8.00;99.90;;;;;;5038783;28;20512;-71
2022/11/29 05:22:05;;;;;;;24.10;11.68;;;8.10;99.90;;;;;;5053954;28;20052;-71
2022/11/29 05:24:30;;;;;;;22.90;11.45;;;8.20;99.90;;;;;;5033651;28;20045;-71
2022/11/29 05:27:07;;;;;;;24.30;12.13;;;8.10;99.90;;;;;;5051391;28;20052;-71
2022/11/29 05:29:41;;;;;;;24.80;11.60;;;8.10;99.90;;;;;;5032640;28;20036;-71
2022/11/29 05:32:23;;;;;;;26.08;11.68;;;8.10;99.90;;;;;;5056678;28;20602;-71
2022/11/29 05:35:24;;;;;;;22.75;12.07;;;8.10;99.90;;;;;;5038325;28;20048;-71
2022/11/29 05:38:11;;;;;;;31.40;11.88;;;8.00;99.90;;;;;;5031401;28;20046;-71
2022/11/29 05:41:21;;;;;;;27.85;11.52;;;8.00;99.90;;;;;;5064724;28;20045;-71
2022/11/29 05:44:04;;;;;;;22.75;10.60;;;8.00;99.90;;;;;;5028669;28;20410;-71
2022/11/29 05:46:45;;;;;;;20.48;10.85;;;8.10;99.90;;;;;;5055830;28;20044;-70
2022/11/29 05:49:24;;;;;;;22.08;10.20;;;8.00;99.90;;;;;;5045947;28;20041;-71
2022/11/29 05:52:11;;;;;;;24.13;11.50;;;8.00;99.90;;;;;;5049620;28;20136;-71
2022/11/29 05:54:52;;;;;;;20.85;11.23;;;8.00;99.90;;;;;;5056381;28;20072;-71
2022/11/29 05:57:34;;;;;;;20.33;11.00;;;8.00;99.90;;;;;;5049624;28;20045;-71
2022/11/29 06:00:03;;;;;;;25.05;11.48;;;8.00;99.90;;;;;;5014856;28;20524;-71
2022/11/29 06:02:52;;;;;;;23.40;11.15;;;7.90;99.90;;;;;;5038767;28;20570;-71
2022/11/29 06:05:25;;;;;;;28.17;10.57;;;7.90;99.90;;;;;;5036295;28;20083;-71
2022/11/29 06:08:18;;;;;;;22.38;11.10;;;7.90;99.90;;;;;;5036541;28;20076;-71
2022/11/29 06:11:05;;;;;;;23.83;12.27;;;7.90;99.90;;;;;;5062213;28;20130;-71
2022/11/29 06:14:04;;;;;;;25.73;10.55;;;7.80;99.90;;;;;;5065237;28;20029;-71
2022/11/29 06:16:33;;;;;;;22.73;10.98;;;7.90;99.90;;;;;;5047624;28;20037;-71
2022/11/29 06:19:28;;;;;;;23.10;10.80;;;7.80;99.90;;;;;;5029262;28;20052;-71
2022/11/29 06:22:20;;;;;;;24.33;10.55;;;7.80;99.90;;;;;;5043331;28;20045;-71
2022/11/29 06:24:45;;;;;;;18.87;10.20;;;7.80;99.90;;;;;;5037832;28;20056;-70
2022/11/29 06:27:21;;;;;;;26.25;10.63;;;7.80;99.90;;;;;;5037007;28;20299;-71
2022/11/29 06:30:10;;;;;;;21.05;10.75;;;7.80;99.90;;;;;;5053568;28;20106;-70
2022/11/29 06:32:39;;;;;;;21.10;10.55;;;7.90;99.90;;;;;;5054391;28;20029;-71
2022/11/29 06:35:17;;;;;;;21.00;10.30;;;7.90;99.90;;;;;;5036384;28;20064;-71
2022/11/29 06:37:49;;;;;;;24.33;11.80;;;7.80;99.90;;;;;;5053485;28;20052;-70
2022/11/29 06:40:15;;;;;;;23.58;11.07;;;7.80;99.90;;;;;;5050114;28;20060;-70
2022/11/29 06:42:41;;;;;;;31.70;12.15;;;7.80;99.90;;;;;;5017644;28;20490;-71
2022/11/29 06:45:11;;;;;;;26.92;10.95;;;7.80;99.90;;;;;;5019525;28;20045;-71
2022/11/29 06:47:44;;;;;;;26.15;11.85;;;7.70;99.90;;;;;;5037173;28;20049;-71
2022/11/29 06:50:32;;;;;;;26.27;11.75;;;7.70;99.90;;;;;;5035996;28;20029;-71
2022/11/29 06:53:21;;;;;;;24.25;11.10;;;7.70;99.90;;;;;;5052167;28;20075;-71
2022/11/29 06:56:01;;;;;;;28.95;11.48;;;7.60;99.90;;;;;;5052641;28;20037;-71
2022/11/29 06:58:46;;;;;;;26.73;11.70;;;7.60;99.90;;;;;;5054072;28;20051;-71
2022/11/29 07:01:26;;;;;;;22.17;11.32;;;7.60;99.90;;;;;;5050934;28;20045;-71
2022/11/29 07:04:07;;;;;;;19.67;10.98;;;7.60;99.90;;;;;;5049753;28;20447;-70
2022/11/29 07:06:34;;;;;;;20.95;11.07;;;7.70;99.90;;;;;;5049075;28;20044;-70
2022/11/29 07:09:07;;;;;;;22.15;10.73;;;7.70;99.90;;;;;;5038737;28;20036;-70
2022/11/29 07:11:33;;;;;;;17.92;10.52;;;7.70;99.90;;;;;;5059198;28;20036;-70
2022/11/29 07:13:59;;;;;;;23.13;10.32;;;7.70;99.90;;;;;;5070765;28;20518;-71
2022/11/29 07:16:42;;;;;;;21.63;10.82;;;7.70;99.90;;;;;;5041367;28;20060;-71
2022/11/29 07:19:13;;;;;;;21.92;10.38;;;7.80;99.90;;;;;;5047531;28;20072;-71
2022/11/29 07:21:52;;;;;;;21.05;10.88;;;7.80;99.90;;;;;;5034898;28;20489;-71
2022/11/29 07:24:45;;;;;;;19.70;10.88;;;7.80;99.90;;;;;;5053339;28;20087;-70
2022/11/29 07:27:26;;;;;;;21.67;10.60;;;7.80;99.90;;;;;;5027048;28;20048;-70
2022/11/29 07:30:21;;;;;;;19.70;10.05;;;7.80;99.90;;;;;;5045224;28;20039;-71
2022/11/29 07:33:13;;;;;;;20.98;10.57;;;7.70;99.90;;;;;;5039122;28;20044;-70
2022/11/29 07:35:51;;;;;;;21.80;10.20;;;7.80;99.90;;;;;;5066959;28;20128;-71
2022/11/29 07:38:54;;;;;;;20.42;10.77;;;7.70;99.90;;;;;;5036840;28;20043;-70
2022/11/29 07:41:37;;;;;;;22.65;11.57;;;7.80;99.90;;;;;;5032124;28;20045;-70
2022/11/29 07:44:16;;;;;;;;;;;7.70;99.90;;;;;;5065378;28;20083;-71
2022/11/29 07:46:41;;;;;;;20.27;10.35;;;7.70;99.90;;;;;;5037093;28;19927;-71
2022/11/29 07:49:10;;;;;;;25.15;11.82;;;7.60;99.90;;;;;;5065636;28;20428;-71
2022/11/29 07:51:36;;;;;;;23.40;11.23;;;7.70;99.90;;;;;;5056716;28;20420;-71
2022/11/29 07:54:01;;;;;;;32.85;12.35;;;7.60;99.90;;;;;;5071745;28;20037;-71
2022/11/29 07:56:27;;;;;;;21.48;11.27;;;7.70;99.90;;;;;;5035775;28;20033;-71
2022/11/29 07:58:53;;;;;;;20.75;10.88;;;7.70;99.90;;;;;;5064768;28;20047;-70
2022/11/29 08:01:18;;;;;;;20.90;11.15;;;7.60;99.90;;;;;;5035136;28;20045;-71
2022/11/29 08:03:44;;;;;;;24.95;11.98;;;7.70;99.90;;;;;;5061936;28;20058;-70
2022/11/29 08:06:09;;;;;;;21.95;10.73;;;7.70;99.90;;;;;;5056760;28;20135;-70
2022/11/29 08:08:35;;;;;;;23.40;11.57;;;7.70;99.90;;;;;;5059881;28;20124;-70
2022/11/29 08:11:00;;;;;;;24.77;11.63;;;7.70;99.90;;;;;;5050270;28;20090;-70
2022/11/29 08:13:26;;;;;;;21.15;10.98;;;7.70;99.90;;;;;;5040864;28;20516;-71
2022/11/29 08:15:52;;;;;;;24.58;11.27;;;7.80;99.90;;;;;;5038141;28;20405;-70
2022/11/29 08:18:17;;;;;;;26.58;12.02;;;7.70;99.90;;;;;;5042690;28;20075;-71
2022/11/29 08:20:44;;;;;;;24.23;12.32;;;7.70;99.90;;;;;;5060731;28;20048;-71
2022/11/29 08:23:11;;;;;;;20.80;11.10;;;7.70;99.90;;;;;;5042106;28;20040;-71
2022/11/29 08:25:37;;;;;;;26.52;11.77;;;7.70;99.90;;;;;;5031873;28;20501;-71
2022/11/29 08:28:04;;;;;;;24.65;11.57;;;7.80;99.90;;;;;;5037682;28;20029;-71
2022/11/29 08:30:29;;;;;;;24.38;11.52;;;7.80;99.90;;;;;;5050762;28;20473;-71
2022/11/29 08:32:55;;;;;;;22.15;10.43;;;7.80;99.90;;;;;;5053826;28;20060;-71
2022/11/29 08:35:22;;;;;;;22.73;10.63;;;7.80;99.90;;;;;;5044822;28;20405;-71
2022/11/29 08:37:47;;;;;;;21.40;10.27;;;7.80;99.90;;;;;;5046785;28;20040;-71
2022/11/29 08:40:13;;;;;;;23.20;11.85;;;7.80;99.90;;;;;;5064361;28;20055;-71
2022/11/29 08:42:39;;;;;;;23.65;11.50;;;7.90;99.90;;;;;;5061975;28;20517;-71
2022/11/29 08:45:06;;;;;;;23.00;10.70;;;7.90;99.90;;;;;;5061167;28;20044;-71
2022/11/29 08:47:34;;;;;;;21.35;10.43;;;8.00;99.90;;;;;;5059723;28;20041;-71
2022/11/29 08:50:02;;;;;;;19.40;10.30;;;8.00;99.90;;;;;;5053594;28;20048;-71
2022/11/29 08:55:19;;;;;;;22.20;10.93;;;8.10;99.90;;;;;;5058353;28;20041;-71
2022/11/29 08:57:45;;;;;;;24.38;10.48;;;8.00;99.90;;;;;;5065948;28;20075;-71
2022/11/29 09:00:11;;;;;;;20.33;9.45;;;8.00;99.90;;;;;;5040929;28;20485;-71
2022/11/29 09:02:37;;;;;;;19.65;9.48;;;8.10;99.90;;;;;;5046112;28;20091;-71
2022/11/29 09:05:05;;;;;;;20.13;9.55;;;8.00;99.90;;;;;;5054120;28;20056;-71
2022/11/29 09:07:30;;;;;;;21.27;10.55;;;8.00;99.90;;;;;;5049804;28;20036;-71
2022/11/29 09:09:56;;;;;;;17.25;10.10;;;8.00;99.90;;;;;;5052955;28;20029;-71
2022/11/29 09:12:22;;;;;;;21.80;10.02;;;7.90;99.90;;;;;;5070687;28;20137;-71
2022/11/29 09:14:48;;;;;;;18.58;9.23;;;8.00;99.90;;;;;;5066839;28;20033;-71
2022/11/29 09:17:13;;;;;;;20.98;10.35;;;8.00;99.90;;;;;;5069952;28;20040;-71
2022/11/29 09:19:39;;;;;;;19.73;10.27;;;7.90;99.90;;;;;;5069301;28;20126;-71
2022/11/29 09:22:04;;;;;;;22.58;11.27;;;8.00;99.90;;;;;;5054979;28;20033;-71
2022/11/29 09:24:31;;;;;;;20.15;10.75;;;8.00;99.90;;;;;;5071276;28;20074;-71
2022/11/29 09:26:57;;;;;;;20.10;10.13;;;7.90;99.90;;;;;;5051882;28;20559;-71
2022/11/29 09:29:23;;;;;;;21.67;10.38;;;8.00;99.90;;;;;;5055550;28;20036;-71
2022/11/29 09:31:48;;;;;;;20.63;10.20;;;7.90;99.90;;;;;;5043743;28;20032;-71
2022/11/29 09:34:15;;;;;;;20.38;9.43;;;8.00;99.90;;;;;;5047617;28;20090;-71
2022/11/29 09:36:44;;;;;;;19.05;9.52;;;8.00;99.90;;;;;;5054330;28;20546;-71
2022/11/29 09:39:13;;;;;;;22.25;9.57;;;8.00;99.90;;;;;;5054360;28;20116;-71
2022/11/29 09:42:20;;;;;;;22.70;9.18;;;8.10;99.90;;;;;;5055111;28;20068;-71
2022/11/29 09:45:06;;;;;;;23.10;9.10;;;8.10;99.90;;;;;;5054985;28;20037;-71
2022/11/29 09:48:12;;;;;;;18.85;8.30;;;8.00;99.90;;;;;;5038070;28;20099;-71
2022/11/29 09:50:56;;;;;;;20.70;8.48;;;8.10;99.90;;;;;;5054867;28;20041;-71
2022/11/29 09:53:42;;;;;;;17.45;9.02;;;8.10;99.90;;;;;;5055154;28;20123;-71
2022/11/29 09:56:35;;;;;;;25.88;9.35;;;8.10;99.90;;;;;;5053839;28;20037;-72
2022/11/29 09:59:11;;;;;;;21.80;9.05;;;8.10;99.90;;;;;;5037809;28;20067;-71
2022/11/29 10:01:41;;;;;;;19.52;8.45;;;8.10;99.90;;;;;;5038484;28;20124;-71
2022/11/29 10:04:20;;;;;;;17.60;7.95;;;8.20;99.90;;;;;;5054437;28;20061;-71
2022/11/29 10:07:26;;;;;;;18.90;8.05;;;8.20;99.90;;;;;;5037652;28;20044;-71
2022/11/29 10:10:01;;;;;;;19.42;7.15;;;8.30;99.90;;;;;;5054499;28;20037;-71
2022/11/29 10:12:39;;;;;;;22.88;8.77;;;8.30;99.90;;;;;;5037757;28;20033;-71
2022/11/29 10:15:29;;;;;;;20.30;8.13;;;8.30;99.90;;;;;;5054775;28;20095;-71
2022/11/29 10:18:25;;;;;;;18.98;8.15;;;8.40;99.90;;;;;;5037552;28;20083;-71
2022/11/29 10:20:57;;;;;;;19.10;8.93;;;8.40;99.90;;;;;;5054525;28;20414;-71
2022/11/29 10:23:28;;;;;;;18.92;8.23;;;8.40;99.90;;;;;;5054198;28;20045;-72
2022/11/29 10:25:55;;;;;;;17.27;7.45;;;8.40;99.90;;;;;;5052845;28;20047;-71
2022/11/29 10:28:29;;;;;;;19.33;7.97;;;8.50;99.90;;;;;;5036402;28;20409;-71
2022/11/29 10:30:58;;;;;;;23.90;8.23;;;8.60;99.90;;;;;;5037217;28;20033;-72
2022/11/29 10:33:31;;;;;;;20.70;7.78;;;8.60;99.90;;;;;;5054355;28;20111;-71
2022/11/29 10:36:01;;;;;;;24.08;8.48;;;8.60;99.90;;;;;;5054183;28;20041;-71
2022/11/29 10:38:26;;;;;;;18.60;8.27;;;8.60;99.90;;;;;;5054058;28;20401;-72
2022/11/29 10:41:03;;;;;;;26.63;8.35;;;8.60;99.90;;;;;;5037273;28;20033;-72
2022/11/29 10:43:29;;;;;;;21.13;7.75;;;8.60;99.90;;;;;;5036897;28;20388;-71
2022/11/29 10:45:55;;;;;;;21.17;7.40;;;8.60;99.90;;;;;;5036848;28;20041;-71
2022/11/29 10:48:30;;;;;;;24.98;8.27;;;8.60;99.90;;;;;;5049025;28;20037;-71
2022/11/29 10:50:56;;;;;;;16.08;7.05;;;8.70;99.90;;;;;;5066721;28;20427;-71
2022/11/29 10:53:25;;;;;;;15.65;7.25;;;8.70;99.90;;;;;;5046532;28;20032;-71
2022/11/29 10:55:59;;;;;;;16.15;7.57;;;8.80;99.90;;;;;;5042495;28;20043;-71
2022/11/29 10:58:27;;;;;;;20.58;7.25;;;8.80;99.90;;;;;;5053989;28;20064;-71
2022/11/29 11:01:07;;;;;;;20.10;7.85;;;8.90;99.90;;;;;;5072695;28;20439;-71
2022/11/29 11:03:40;;;;;;;15.48;6.63;;;8.90;99.90;;;;;;5052472;28;20065;-71
2022/11/29 11:06:08;;;;;;;16.10;6.82;;;9.00;99.90;;;;;;5063288;28;20036;-71
2022/11/29 11:08:35;;;;;;;15.70;7.38;;;9.00;99.90;;;;;;5071749;28;20040;-71
2022/11/29 11:11:03;;;;;;;18.63;7.40;;;9.00;99.90;;;;;;5069942;28;20041;-71
2022/11/29 11:13:31;;;;;;;20.98;7.28;;;9.10;99.90;;;;;;5074153;28;20033;-71
2022/11/29 11:16:12;;;;;;;20.02;8.32;;;9.20;99.90;;;;;;5042663;28;20485;-71
2022/11/29 11:18:38;;;;;;;16.63;7.75;;;9.10;99.90;;;;;;5039238;28;20036;-71
2022/11/29 11:21:09;;;;;;;16.02;7.00;;;9.30;99.90;;;;;;5049265;28;20408;-71
2022/11/29 11:23:38;;;;;;;17.92;7.85;;;9.30;99.90;;;;;;5056423;28;20030;-71
2022/11/29 11:26:12;;;;;;;17.58;7.20;;;9.30;99.90;;;;;;5046254;28;20125;-71
2022/11/29 11:28:49;;;;;;;15.38;7.70;;;9.30;99.90;;;;;;5058969;28;20058;-71
2022/11/29 11:31:25;;;;;;;19.73;7.53;;;9.30;99.90;;;;;;5065053;28;20507;-72
2022/11/29 11:33:51;;;;;;;17.83;6.90;;;9.30;99.90;;;;;;5040428;28;20047;-71
2022/11/29 11:36:19;;;;;;;21.13;7.88;;;9.40;99.90;;;;;;5053875;28;20029;-71
2022/11/29 11:39:12;;;;;;;17.83;7.13;;;9.30;99.90;;;;;;5048480;28;20044;-71
2022/11/29 11:44:52;;;;;;;17.50;7.53;;;9.40;99.90;;;;;;5034541;28;20084;-71
2022/11/29 11:47:24;;;;;;;15.32;7.28;;;9.40;99.90;;;;;;5042462;28;20134;-71
2022/11/29 11:50:02;;;;;;;22.50;8.32;;;9.50;99.90;;;;;;5062193;28;20037;-72
2022/11/29 11:52:35;;;;;;;18.15;7.15;;;9.60;99.90;;;;;;5033522;28;20033;-72
2022/11/29 11:55:06;;;;;;;15.45;7.55;;;9.60;99.90;;;;;;5059205;28;20044;-71
2022/11/29 11:57:31;;;;;;;19.13;7.63;;;9.70;99.90;;;;;;5053302;28;20052;-72
2022/11/29 11:59:58;;;;;;;15.95;7.90;;;9.70;99.90;;;;;;5048690;28;20044;-72
2022/11/29 12:02:36;;;;;;;18.90;7.25;;;9.80;99.90;;;;;;5044639;28;20051;-71
2022/11/29 12:05:09;;;;;;;18.67;8.85;;;9.80;99.90;;;;;;5049055;28;20048;-72
2022/11/29 12:07:50;;;;;;;16.42;7.90;;;9.80;99.90;;;;;;5067901;28;20036;-72
2022/11/29 12:10:27;;;;;;;20.80;8.18;;;9.80;99.90;;;;;;5048844;28;20039;-72
2022/11/29 12:12:55;;;;;;;15.00;7.47;;;9.80;99.90;;;;;;5046082;28;20040;-71
2022/11/29 12:15:34;;;;;;;17.88;8.85;;;9.80;99.90;;;;;;5051301;28;20040;-72
2022/11/29 12:18:25;;;;;;;16.88;7.57;;;9.80;99.90;;;;;;5049897;28;20041;-72
2022/11/29 12:21:13;;;;;;;20.45;8.73;;;9.90;99.90;;;;;;5057125;28;20044;-72
2022/11/29 12:23:52;;;;;;;18.10;7.93;;;9.80;99.90;;;;;;5052266;28;20040;-72
2022/11/29 12:26:30;;;;;;;17.77;8.40;;;9.80;99.90;;;;;;5042601;28;20573;-72
2022/11/29 12:28:58;;;;;;;16.80;8.85;;;9.90;99.90;;;;;;5050949;28;20037;-72
2022/11/29 12:31:39;;;;;;;17.95;9.57;;;9.90;99.90;;;;;;5041751;28;20037;-72
2022/11/29 12:34:14;;;;;;;17.75;9.90;;;9.80;99.90;;;;;;5051610;28;20035;-71
2022/11/29 12:36:55;;;;;;;16.00;8.63;;;9.80;99.90;;;;;;5050504;28;20036;-72
2022/11/29 12:39:37;;;;;;;14.23;8.30;;;9.80;99.90;;;;;;5055457;28;20048;-71
2022/11/29 12:42:29;;;;;;;13.90;8.55;;;9.80;99.90;;;;;;5045072;28;20037;-72
2022/11/29 12:45:25;;;;;;;13.57;7.97;;;9.80;99.90;;;;;;5051552;28;20051;-72
2022/11/29 12:48:12;;;;;;;13.35;7.25;;;9.80;99.90;;;;;;5040786;28;20041;-71
2022/11/29 12:50:56;;;;;;;14.60;7.90;;;9.80;99.90;;;;;;5048194;28;20052;-72
2022/11/29 12:53:57;;;;;;;12.50;7.32;;;9.70;99.90;;;;;;5042311;28;20032;-72
2022/11/29 12:56:35;;;;;;;13.57;7.47;;;9.70;99.90;;;;;;5035543;28;20396;-72
2022/11/29 12:59:14;;;;;;;12.93;7.97;;;9.70;99.90;;;;;;5048323;28;20055;-72
2022/11/29 13:02:17;;;;;;;14.40;7.53;;;9.70;99.90;;;;;;5034347;28;20041;-72
2022/11/29 13:05:23;;;;;;;11.50;7.22;;;9.70;99.90;;;;;;5029483;28;20088;-72
2022/11/29 13:07:52;;;;;;;10.82;6.70;;;9.70;99.90;;;;;;5044003;28;20044;-72
2022/11/29 13:10:26;;;;;;;10.85;6.82;;;9.70;99.90;;;;;;5047440;28;20151;-72
2022/11/29 13:12:56;;;;;;;11.20;6.40;;;9.70;99.90;;;;;;5051385;28;20037;-72
2022/11/29 13:15:34;;;;;;;11.68;7.68;;;9.60;99.90;;;;;;5053567;28;20037;-72
2022/11/29 13:18:30;;;;;;;11.98;7.35;;;9.50;99.90;;;;;;5052902;28;20036;-71
2022/11/29 13:21:02;;;;;;;12.20;7.70;;;9.50;99.90;;;;;;5049680;28;20064;-72
2022/11/29 13:23:38;;;;;;;11.38;7.22;;;9.40;99.90;;;;;;5035440;28;20045;-72
2022/11/29 13:26:08;;;;;;;11.13;7.50;;;9.50;99.90;;;;;;5051662;28;20045;-72
2022/11/29 13:28:36;;;;;;;11.07;7.63;;;9.40;99.90;;;;;;5054477;28;20040;-71
2022/11/29 13:31:12;;;;;;;11.27;7.80;;;9.40;99.90;;;;;;5034141;28;20116;-72
2022/11/29 13:33:47;;;;;;;11.93;8.18;;;9.40;99.90;;;;;;5033018;28;20075;-72
2022/11/29 13:36:26;;;;;;;12.60;9.07;;;9.30;99.90;;;;;;5054962;28;20048;-72